createdAt,value
2018-12-19T00:02:11.306Z,10.30
2018-12-19T00:04:40.254Z,11.63
2018-12-19T00:07:09.002Z,11.37
2018-12-19T00:09:38.041Z,11.73
2018-12-19T00:12:07.135Z,12.53
2018-12-19T00:14:35.902Z,10.87
2018-12-19T00:17:04.710Z,12.43
2018-12-19T00:19:33.716Z,11.40
2018-12-19T00:22:02.502Z,11.87
2018-12-19T00:24:31.699Z,9.97
2018-12-19T00:27:00.449Z,10.90
2018-12-19T00:29:29.373Z,11.17
2018-12-19T00:31:58.169Z,11.43
2018-12-19T00:34:26.994Z,10.23
2018-12-19T00:36:55.949Z,11.33
2018-12-19T00:39:24.712Z,9.60
2018-12-19T00:41:53.669Z,9.00
2018-12-19T00:44:22.719Z,10.50
2018-12-19T00:46:51.456Z,11.17
2018-12-19T00:49:20.403Z,10.23
2018-12-19T00:51:49.494Z,9.63
2018-12-19T00:54:18.214Z,8.73
2018-12-19T00:56:47.236Z,10.10
2018-12-19T00:59:16.460Z,9.43
2018-12-19T01:01:45.259Z,10.43
2018-12-19T01:04:14.350Z,8.90
2018-12-19T01:06:43.057Z,10.63
2018-12-19T01:09:15.902Z,11.10
2018-12-19T01:11:42.710Z,10.30
2018-12-19T01:14:11.680Z,9.10
2018-12-19T01:16:40.654Z,9.37
2018-12-19T01:19:09.749Z,9.97
2018-12-19T01:21:38.564Z,9.17
2018-12-19T01:24:07.542Z,9.40
2018-12-19T01:26:36.322Z,9.97
2018-12-19T01:29:05.162Z,9.57
2018-12-19T01:31:33.871Z,9.60
2018-12-19T01:34:02.619Z,9.13
2018-12-19T01:36:31.602Z,9.83
2018-12-19T01:39:00.340Z,10.00
2018-12-19T01:41:29.038Z,8.63
2018-12-19T01:43:58.145Z,9.47
2018-12-19T01:46:27.548Z,8.07
2018-12-19T01:48:56.646Z,10.10
2018-12-19T01:51:25.605Z,8.40
2018-12-19T01:53:54.519Z,8.57
2018-12-19T01:56:23.242Z,8.80
2018-12-19T01:58:52.504Z,8.90
2018-12-19T02:01:21.494Z,8.77
2018-12-19T02:03:50.408Z,8.83
2018-12-19T02:06:19.506Z,8.80
2018-12-19T02:08:48.269Z,8.57
2018-12-19T02:11:17.002Z,8.87
2018-12-19T02:13:45.844Z,7.83
2018-12-19T02:16:14.587Z,9.23
2018-12-19T02:18:43.641Z,8.60
2018-12-19T02:21:12.643Z,9.00
2018-12-19T02:23:41.846Z,7.67
2018-12-19T02:26:10.750Z,9.17
2018-12-19T02:28:40.642Z,10.10
2018-12-19T02:31:09.484Z,8.60
2018-12-19T02:33:38.953Z,8.97
2018-12-19T02:36:07.697Z,8.03
2018-12-19T02:38:36.718Z,8.50
2018-12-19T02:41:05.710Z,7.77
2018-12-19T02:43:34.725Z,7.53
2018-12-19T02:46:03.497Z,8.20
2018-12-19T02:48:32.382Z,8.40
2018-12-19T02:51:01.387Z,7.50
2018-12-19T02:53:30.959Z,8.87
2018-12-19T02:56:00.008Z,8.73
2018-12-19T02:58:28.770Z,8.67
2018-12-19T03:00:57.974Z,7.73
2018-12-19T03:03:26.713Z,8.37
2018-12-19T03:05:55.759Z,8.37
2018-12-19T03:08:24.536Z,8.97
2018-12-19T03:10:53.641Z,7.80
2018-12-19T03:13:22.714Z,8.23
2018-12-19T03:15:51.403Z,8.83
2018-12-19T03:18:20.319Z,8.53
2018-12-19T03:20:49.418Z,8.83
2018-12-19T03:23:18.398Z,9.93
2018-12-19T03:25:47.152Z,10.93
2018-12-19T03:28:16.169Z,9.10
2018-12-19T03:30:53.394Z,11.17
2018-12-19T03:33:22.670Z,10.93
2018-12-19T03:35:51.406Z,8.93
2018-12-19T03:38:24.546Z,10.83
2018-12-19T03:40:53.527Z,7.83
2018-12-19T03:43:22.301Z,9.20
2018-12-19T03:45:51.425Z,9.53
2018-12-19T03:48:25.576Z,10.27
2018-12-19T03:50:54.270Z,9.47
2018-12-19T03:53:22.947Z,8.50
2018-12-19T03:55:51.906Z,8.80
2018-12-19T03:58:20.908Z,8.73
2018-12-19T04:00:49.874Z,8.70
2018-12-19T04:03:18.517Z,8.53
2018-12-19T04:05:47.580Z,9.07
2018-12-19T04:08:16.652Z,8.40
2018-12-19T04:10:45.420Z,8.67
2018-12-19T04:13:14.426Z,7.60
2018-12-19T04:15:43.197Z,8.63
2018-12-19T04:18:12.650Z,8.27
2018-12-19T04:20:41.503Z,8.97
2018-12-19T04:23:10.526Z,9.80
2018-12-19T04:25:39.385Z,8.17
2018-12-19T04:28:08.452Z,8.17
2018-12-19T04:30:40.108Z,8.33
2018-12-19T04:33:09.224Z,7.37
2018-12-19T04:35:39.289Z,9.57
2018-12-19T04:38:08.285Z,9.30
2018-12-19T04:40:37.278Z,8.60
2018-12-19T04:43:06.469Z,8.30
2018-12-19T04:45:35.309Z,8.57
2018-12-19T04:48:04.302Z,9.53
2018-12-19T04:50:33.265Z,7.63
2018-12-19T04:53:02.503Z,9.33
2018-12-19T04:55:31.271Z,10.33
2018-12-19T04:58:00.755Z,7.97
2018-12-19T05:00:29.542Z,10.00
2018-12-19T05:02:58.739Z,9.80
2018-12-19T05:05:27.707Z,10.90
2018-12-19T05:07:57.136Z,10.33
2018-12-19T05:10:26.104Z,11.13
2018-12-19T05:12:55.120Z,10.93
2018-12-19T05:15:24.212Z,12.83
2018-12-19T05:17:52.902Z,9.77
2018-12-19T05:20:21.846Z,12.13
2018-12-19T05:22:50.816Z,11.87
2018-12-19T05:25:19.984Z,11.27
2018-12-19T05:27:48.866Z,11.73
2018-12-19T05:30:17.675Z,9.50
2018-12-19T05:32:46.359Z,12.13
2018-12-19T05:35:15.341Z,10.80
2018-12-19T05:37:44.741Z,12.63
2018-12-19T05:40:18.848Z,11.60
2018-12-19T05:42:44.452Z,11.90
2018-12-19T05:45:13.207Z,12.77
2018-12-19T05:47:42.657Z,11.83
2018-12-19T05:50:12.106Z,11.30
2018-12-19T05:52:41.376Z,10.57
2018-12-19T05:55:10.468Z,9.33
2018-12-19T05:57:39.672Z,10.50
2018-12-19T06:00:09.794Z,10.10
2018-12-19T06:02:38.842Z,9.07
2018-12-19T06:05:07.879Z,9.57
2018-12-19T06:07:36.636Z,9.40
2018-12-19T06:10:06.081Z,9.10
2018-12-19T06:12:34.927Z,8.90
2018-12-19T06:15:04.970Z,9.97
2018-12-19T06:17:33.971Z,8.83
2018-12-19T06:20:03.066Z,8.93
2018-12-19T06:22:32.265Z,9.20
2018-12-19T06:25:01.561Z,8.87
2018-12-19T06:27:30.355Z,10.00
2018-12-19T06:29:59.456Z,11.00
2018-12-19T06:32:28.239Z,9.67
2018-12-19T06:34:57.330Z,9.37
2018-12-19T06:37:26.087Z,8.93
2018-12-19T06:39:55.011Z,10.50
2018-12-19T06:42:23.899Z,9.00
2018-12-19T06:44:52.676Z,9.00
2018-12-19T06:47:21.684Z,9.63
2018-12-19T06:49:50.414Z,8.83
2018-12-19T06:52:19.570Z,11.30
2018-12-19T06:54:49.574Z,10.07
2018-12-19T06:57:18.662Z,8.47
2018-12-19T06:59:47.678Z,9.90
2018-12-19T07:02:16.771Z,10.70
2018-12-19T07:04:45.665Z,9.23
2018-12-19T07:07:14.495Z,10.17
2018-12-19T07:09:43.439Z,9.20
2018-12-19T07:12:12.471Z,10.80
2018-12-19T07:14:42.250Z,10.83
2018-12-19T07:17:11.348Z,11.07
2018-12-19T07:19:40.302Z,11.17
2018-12-19T07:22:09.439Z,12.43
2018-12-19T07:24:38.118Z,12.87
2018-12-19T07:27:07.110Z,13.00
2018-12-19T07:29:35.868Z,13.40
2018-12-19T07:32:04.890Z,11.33
2018-12-19T07:34:33.960Z,8.93
2018-12-19T07:37:03.081Z,11.47
2018-12-19T07:39:31.855Z,12.90
2018-12-19T07:42:00.761Z,12.30
2018-12-19T07:44:29.620Z,11.67
2018-12-19T07:46:58.760Z,10.17
2018-12-19T07:49:27.842Z,12.17
2018-12-19T07:51:56.997Z,12.23
2018-12-19T07:54:26.046Z,12.80
2018-12-19T07:56:55.444Z,14.57
2018-12-19T07:59:24.446Z,12.67
2018-12-19T08:01:53.946Z,13.80
2018-12-19T08:04:23.043Z,13.00
2018-12-19T08:06:52.558Z,12.07
2018-12-19T08:09:21.633Z,12.77
2018-12-19T08:11:50.753Z,10.70
2018-12-19T08:14:19.925Z,12.30
2018-12-19T08:16:48.835Z,13.77
2018-12-19T08:19:17.922Z,13.23
2018-12-19T08:21:47.222Z,11.17
2018-12-19T08:24:16.517Z,12.77
2018-12-19T08:26:45.370Z,14.30
2018-12-19T08:29:14.666Z,15.47
2018-12-19T08:31:44.133Z,13.00
2018-12-19T08:34:13.144Z,12.70
2018-12-19T08:36:42.435Z,11.40
2018-12-19T08:39:11.928Z,10.50
2018-12-19T08:41:41.533Z,11.67
2018-12-19T08:44:10.552Z,12.33
2018-12-19T08:46:39.387Z,11.20
2018-12-19T08:49:08.160Z,11.83
2018-12-19T08:51:36.847Z,10.73
2018-12-19T08:54:05.665Z,9.73
2018-12-19T08:56:34.657Z,9.87
2018-12-19T08:59:03.720Z,10.80
2018-12-19T09:01:34.399Z,10.27
2018-12-19T09:04:03.485Z,11.27
2018-12-19T09:06:32.955Z,10.60
2018-12-19T09:09:02.298Z,11.20
2018-12-19T09:11:31.301Z,11.27
2018-12-19T09:14:00.118Z,11.17
2018-12-19T09:16:29.381Z,11.47
2018-12-19T09:18:58.440Z,12.17
2018-12-19T09:21:27.505Z,9.87
2018-12-19T09:23:56.657Z,12.70
2018-12-19T09:26:25.671Z,11.53
2018-12-19T09:28:54.885Z,12.37
2018-12-19T09:31:23.961Z,10.97
2018-12-19T09:33:52.632Z,12.13
2018-12-19T09:36:21.639Z,12.77
2018-12-19T09:38:50.798Z,10.33
2018-12-19T09:41:19.776Z,9.33
2018-12-19T09:43:49.115Z,8.73
2018-12-19T09:46:18.042Z,9.53
2018-12-19T09:48:47.115Z,10.30
2018-12-19T09:51:15.926Z,9.87
2018-12-19T09:53:45.008Z,11.13
2018-12-19T09:56:13.860Z,11.17
2018-12-19T09:58:42.575Z,10.97
2018-12-19T10:01:11.370Z,10.93
2018-12-19T10:03:40.516Z,11.17
2018-12-19T10:06:09.377Z,10.13
2018-12-19T10:08:38.382Z,10.90
2018-12-19T10:11:07.580Z,11.37
2018-12-19T10:13:36.864Z,9.17
2018-12-19T10:16:05.639Z,11.27
2018-12-19T10:18:34.727Z,10.60
2018-12-19T10:21:04.019Z,11.00
2018-12-19T10:23:32.851Z,10.73
2018-12-19T10:26:06.802Z,11.77
2018-12-19T10:28:36.356Z,11.00
2018-12-19T10:31:05.611Z,11.03
2018-12-19T10:33:34.642Z,12.30
2018-12-19T10:36:03.849Z,11.40
2018-12-19T10:38:32.732Z,11.10
2018-12-19T10:41:01.534Z,11.40
2018-12-19T10:43:30.600Z,10.43
2018-12-19T10:45:59.262Z,10.67
2018-12-19T10:48:28.274Z,10.53
2018-12-19T10:50:57.375Z,12.00
2018-12-19T10:53:26.439Z,11.53
2018-12-19T10:55:55.474Z,11.30
2018-12-19T10:58:24.252Z,13.53
2018-12-19T11:00:58.482Z,12.00
2018-12-19T11:03:27.588Z,13.87
2018-12-19T11:05:56.671Z,21.07
2018-12-19T11:08:25.862Z,15.47
2018-12-19T11:10:54.951Z,12.70
2018-12-19T11:13:23.775Z,12.07
2018-12-19T11:15:53.415Z,12.13
2018-12-19T11:18:22.729Z,12.60
2018-12-19T11:20:52.014Z,12.07
2018-12-19T11:23:21.270Z,11.10
2018-12-19T11:25:50.194Z,10.80
2018-12-19T11:28:19.071Z,11.30
2018-12-19T11:30:47.787Z,12.27
2018-12-19T11:33:16.437Z,12.27
2018-12-19T11:35:45.515Z,10.90
2018-12-19T11:38:14.508Z,10.03
2018-12-19T11:40:43.765Z,12.70
2018-12-19T11:43:12.630Z,11.53
2018-12-19T11:45:41.839Z,12.60
2018-12-19T11:48:10.654Z,10.47
2018-12-19T11:50:39.621Z,10.83
2018-12-19T11:53:08.684Z,11.83
2018-12-19T11:55:37.771Z,11.80
2018-12-19T11:58:06.617Z,12.00
2018-12-19T12:00:42.423Z,12.27
2018-12-19T12:03:11.780Z,11.33
2018-12-19T12:05:40.602Z,10.47
2018-12-19T12:08:09.676Z,11.03
2018-12-19T12:10:38.699Z,12.37
2018-12-19T12:13:07.887Z,10.77
2018-12-19T12:15:36.886Z,11.87
2018-12-19T12:18:05.670Z,11.87
2018-12-19T12:20:34.364Z,13.13
2018-12-19T12:23:03.691Z,12.17
2018-12-19T12:25:32.958Z,11.13
2018-12-19T12:28:01.997Z,11.50
2018-12-19T12:30:30.685Z,12.00
2018-12-19T12:32:59.854Z,11.60
2018-12-19T12:35:28.930Z,12.07
2018-12-19T12:37:57.634Z,14.50
2018-12-19T12:40:26.710Z,15.73
2018-12-19T12:42:57.082Z,15.80
2018-12-19T12:45:26.130Z,12.67
2018-12-19T12:47:55.426Z,12.63
2018-12-19T12:50:24.637Z,13.30
2018-12-19T12:52:53.543Z,11.67
2018-12-19T12:55:22.299Z,16.40
2018-12-19T12:57:51.078Z,13.60
2018-12-19T13:00:20.142Z,15.13
2018-12-19T13:02:48.894Z,12.87
2018-12-19T13:05:18.314Z,14.17
2018-12-19T13:07:47.282Z,15.73
2018-12-19T13:10:16.034Z,15.27
2018-12-19T13:12:45.501Z,13.70
2018-12-19T13:15:18.605Z,13.20
2018-12-19T13:17:47.768Z,13.83
2018-12-19T13:20:17.283Z,15.80
2018-12-19T13:22:46.502Z,13.73
2018-12-19T13:25:15.473Z,13.47
2018-12-19T13:27:44.721Z,15.67
2018-12-19T13:30:13.767Z,13.80
2018-12-19T13:32:42.881Z,17.83
2018-12-19T13:35:12.450Z,13.77
2018-12-19T13:37:41.291Z,14.20
2018-12-19T13:40:10.561Z,13.40
2018-12-19T13:42:39.318Z,13.93
2018-12-19T13:45:10.013Z,11.33
2018-12-19T13:47:39.296Z,11.03
2018-12-19T13:50:09.291Z,13.27
2018-12-19T13:52:38.063Z,13.53
2018-12-19T13:55:07.101Z,16.33
2018-12-19T13:57:36.208Z,12.03
2018-12-19T14:00:07.004Z,12.70
2018-12-19T14:02:36.599Z,11.83
2018-12-19T14:05:05.470Z,12.27
2018-12-19T14:07:34.604Z,14.03
2018-12-19T14:10:03.599Z,16.27
2018-12-19T14:12:32.517Z,13.00
2018-12-19T14:15:01.573Z,15.17
2018-12-19T14:17:30.676Z,15.70
2018-12-19T14:19:59.507Z,15.60
2018-12-19T14:22:28.656Z,15.10
2018-12-19T14:24:57.745Z,14.97
2018-12-19T14:27:26.561Z,13.40
2018-12-19T14:29:55.333Z,15.50
2018-12-19T14:32:24.530Z,15.37
2018-12-19T14:34:53.521Z,15.43
2018-12-19T14:37:22.285Z,16.33
2018-12-19T14:39:51.306Z,15.07
2018-12-19T14:42:21.214Z,16.30
2018-12-19T14:44:50.244Z,14.67
2018-12-19T14:47:19.822Z,16.00
2018-12-19T14:49:48.618Z,13.93
2018-12-19T14:52:17.911Z,13.73
2018-12-19T14:54:54.443Z,13.97
2018-12-19T14:57:23.679Z,15.00
2018-12-19T14:59:52.591Z,14.40
2018-12-19T15:02:21.382Z,16.37
2018-12-19T15:04:50.398Z,15.53
2018-12-19T15:07:19.768Z,14.50
2018-12-19T15:09:48.434Z,14.53
2018-12-19T15:12:17.638Z,12.97
2018-12-19T15:14:46.742Z,12.90
2018-12-19T15:17:17.079Z,14.77
2018-12-19T15:19:46.256Z,12.77
2018-12-19T15:22:15.668Z,12.30
2018-12-19T15:24:44.488Z,14.13
2018-12-19T15:27:13.407Z,14.23
2018-12-19T15:29:42.671Z,16.73
2018-12-19T15:32:12.200Z,14.33
2018-12-19T15:34:41.464Z,17.07
2018-12-19T15:37:10.556Z,16.33
2018-12-19T15:39:39.530Z,20.67
2018-12-19T15:42:08.507Z,31.47
2018-12-19T15:44:37.331Z,71.20
2018-12-19T15:47:06.024Z,59.83
2018-12-19T15:49:34.827Z,45.17
2018-12-19T15:52:03.895Z,33.77
2018-12-19T15:54:32.922Z,37.00
2018-12-19T15:57:01.827Z,39.53
2018-12-19T15:59:30.870Z,39.00
2018-12-19T16:01:59.594Z,40.10
2018-12-19T16:04:28.667Z,43.00
2018-12-19T16:06:57.729Z,38.63
2018-12-19T16:09:26.764Z,38.67
2018-12-19T16:11:56.550Z,38.53
2018-12-19T16:14:26.056Z,41.00
2018-12-19T16:16:55.046Z,45.23
2018-12-19T16:19:24.150Z,40.93
2018-12-19T16:21:52.902Z,41.73
2018-12-19T16:24:21.662Z,41.33
2018-12-19T16:26:50.713Z,43.90
2018-12-19T16:29:19.515Z,37.70
2018-12-19T16:31:48.606Z,38.40
2018-12-19T16:34:17.699Z,35.33
2018-12-19T16:36:46.790Z,38.20
2018-12-19T16:39:15.566Z,41.23
2018-12-19T16:41:44.695Z,40.67
2018-12-19T16:44:13.542Z,41.50
2018-12-19T16:46:42.560Z,37.63
2018-12-19T16:49:11.750Z,37.97
2018-12-19T16:51:47.325Z,45.80
2018-12-19T16:54:16.151Z,55.50
2018-12-19T16:56:45.311Z,49.10
2018-12-19T16:59:14.415Z,45.47
2018-12-19T17:01:44.094Z,44.67
2018-12-19T17:04:13.520Z,43.40
2018-12-19T17:06:42.501Z,46.33
2018-12-19T17:09:11.475Z,47.00
2018-12-19T17:11:40.228Z,48.40
2018-12-19T17:14:09.261Z,50.27
2018-12-19T17:16:38.678Z,48.83
2018-12-19T17:19:07.536Z,46.20
2018-12-19T17:21:36.504Z,49.67
2018-12-19T17:24:05.694Z,50.93
2018-12-19T17:26:34.649Z,64.40
2018-12-19T17:29:03.835Z,56.23
2018-12-19T17:31:32.587Z,53.17
2018-12-19T17:34:01.310Z,46.30
2018-12-19T17:36:30.317Z,49.23
2018-12-19T17:38:59.406Z,50.53
2018-12-19T17:41:28.504Z,51.30
2018-12-19T17:43:57.849Z,53.53
2018-12-19T17:46:27.031Z,61.67
2018-12-19T17:48:56.267Z,65.03
2018-12-19T17:51:25.909Z,62.50
2018-12-19T17:53:55.027Z,56.47
2018-12-19T17:56:23.714Z,53.67
2018-12-19T17:58:52.799Z,58.20
2018-12-19T18:01:21.597Z,62.83
2018-12-19T18:03:50.437Z,65.03
2018-12-19T18:06:19.172Z,54.37
2018-12-19T18:08:48.098Z,58.40
2018-12-19T18:11:16.896Z,52.40
2018-12-19T18:13:46.048Z,50.93
2018-12-19T18:16:15.050Z,53.17
2018-12-19T18:18:43.809Z,49.57
2018-12-19T18:21:12.724Z,58.90
2018-12-19T18:23:41.708Z,53.77
2018-12-19T18:26:10.710Z,43.27
2018-12-19T18:28:41.433Z,40.13
2018-12-19T18:31:10.500Z,33.67
2018-12-19T18:33:39.349Z,39.07
2018-12-19T18:36:07.992Z,37.73
2018-12-19T18:38:37.275Z,40.07
2018-12-19T18:41:06.306Z,46.17
2018-12-19T18:43:35.314Z,48.57
2018-12-19T18:46:04.996Z,46.40
2018-12-19T18:48:34.145Z,44.00
2018-12-19T18:51:03.027Z,41.83
2018-12-19T18:53:32.182Z,39.27
2018-12-19T18:56:01.282Z,36.90
2018-12-19T18:58:30.381Z,35.40
2018-12-19T19:00:59.385Z,31.17
2018-12-19T19:03:28.349Z,29.20
2018-12-19T19:05:57.579Z,27.53
2018-12-19T19:08:26.734Z,23.83
2018-12-19T19:10:55.813Z,22.53
2018-12-19T19:13:24.582Z,21.67
2018-12-19T19:15:53.991Z,24.73
2018-12-19T19:18:22.865Z,22.13
2018-12-19T19:20:51.763Z,22.03
2018-12-19T19:23:20.551Z,23.10
2018-12-19T19:25:49.311Z,22.37
2018-12-19T19:28:18.309Z,23.03
2018-12-19T19:30:53.970Z,22.17
2018-12-19T19:33:23.064Z,22.27
2018-12-19T19:35:52.148Z,22.37
2018-12-19T19:38:21.168Z,26.77
2018-12-19T19:40:50.237Z,24.30
2018-12-19T19:43:19.115Z,26.17
2018-12-19T19:45:48.174Z,26.37
2018-12-19T19:48:17.342Z,25.47
2018-12-19T19:50:46.640Z,24.07
2018-12-19T19:53:15.697Z,26.60
2018-12-19T19:55:44.450Z,24.00
2018-12-19T19:58:13.515Z,27.33
2018-12-19T20:00:42.611Z,27.40
2018-12-19T20:03:11.564Z,25.50
2018-12-19T20:05:40.260Z,27.93
2018-12-19T20:08:09.033Z,27.37
2018-12-19T20:10:38.172Z,26.33
2018-12-19T20:13:07.022Z,26.77
2018-12-19T20:15:36.169Z,24.20
2018-12-19T20:18:06.982Z,24.80
2018-12-19T20:20:35.983Z,25.17
2018-12-19T20:23:05.188Z,25.43
2018-12-19T20:25:33.958Z,28.27
2018-12-19T20:28:02.865Z,24.63
2018-12-19T20:30:32.373Z,27.03
2018-12-19T20:33:01.482Z,24.07
2018-12-19T20:35:30.623Z,25.30
2018-12-19T20:37:59.768Z,24.10
2018-12-19T20:40:28.877Z,25.17
2018-12-19T20:42:57.735Z,28.57
2018-12-19T20:45:27.150Z,28.87
2018-12-19T20:47:56.130Z,25.20
2018-12-19T20:50:25.249Z,26.90
2018-12-19T20:52:55.936Z,27.60
2018-12-19T20:55:25.422Z,30.23
2018-12-19T20:57:54.213Z,28.17
2018-12-19T21:00:23.283Z,30.37
2018-12-19T21:02:52.641Z,29.60
2018-12-19T21:05:21.494Z,29.70
2018-12-19T21:07:50.272Z,29.17
2018-12-19T21:10:19.213Z,29.63
2018-12-19T21:12:48.289Z,29.80
2018-12-19T21:15:18.175Z,30.30
2018-12-19T21:17:52.520Z,32.37
2018-12-19T21:20:21.892Z,30.23
2018-12-19T21:22:51.129Z,29.80
2018-12-19T21:25:20.407Z,33.30
2018-12-19T21:27:49.275Z,32.43
2018-12-19T21:30:18.591Z,32.10
2018-12-19T21:32:47.557Z,35.80
2018-12-19T21:35:16.537Z,36.70
2018-12-19T21:37:45.303Z,30.07
2018-12-19T21:40:14.513Z,31.20
2018-12-19T21:42:43.651Z,30.77
2018-12-19T21:45:12.773Z,32.23
2018-12-19T21:47:41.936Z,31.80
2018-12-19T21:50:11.810Z,36.23
2018-12-19T21:52:40.705Z,34.73
2018-12-19T21:55:09.717Z,32.73
2018-12-19T21:57:38.720Z,34.93
2018-12-19T22:00:13.144Z,33.17
2018-12-19T22:02:42.379Z,34.47
2018-12-19T22:05:11.781Z,33.63
2018-12-19T22:07:40.848Z,31.97
2018-12-19T22:10:10.012Z,29.47
2018-12-19T22:12:38.993Z,28.53
2018-12-19T22:15:07.987Z,25.90
2018-12-19T22:17:42.243Z,23.90
2018-12-19T22:20:11.284Z,26.60
2018-12-19T22:22:40.608Z,25.93
2018-12-19T22:25:09.449Z,26.70
2018-12-19T22:27:38.497Z,26.00
2018-12-19T22:30:07.846Z,24.23
2018-12-19T22:32:36.700Z,24.77
2018-12-19T22:35:05.658Z,25.83
2018-12-19T22:37:34.799Z,25.93
2018-12-19T22:40:03.845Z,24.13
2018-12-19T22:42:32.567Z,24.50
2018-12-19T22:45:01.861Z,25.20
2018-12-19T22:47:31.273Z,26.03
2018-12-19T22:50:00.395Z,26.77
2018-12-19T22:52:29.361Z,26.20
2018-12-19T22:54:58.233Z,25.00
2018-12-19T22:57:27.276Z,25.33
2018-12-19T22:59:56.340Z,26.23
2018-12-19T23:02:30.454Z,27.30
2018-12-19T23:04:59.607Z,26.17
2018-12-19T23:07:28.717Z,24.63
2018-12-19T23:09:57.944Z,26.27
2018-12-19T23:12:26.758Z,24.80
2018-12-19T23:14:55.652Z,23.93
2018-12-19T23:17:29.607Z,26.30
2018-12-19T23:19:58.346Z,24.50
2018-12-19T23:22:27.127Z,23.30
2018-12-19T23:24:55.928Z,23.70
2018-12-19T23:27:25.194Z,25.37
2018-12-19T23:29:54.417Z,25.57
2018-12-19T23:32:29.263Z,25.00
2018-12-19T23:34:58.932Z,23.73
2018-12-19T23:37:28.006Z,24.40
2018-12-19T23:39:56.897Z,19.47
2018-12-19T23:42:26.152Z,25.30
2018-12-19T23:44:55.522Z,23.07
2018-12-19T23:47:24.435Z,21.00
2018-12-19T23:49:53.582Z,21.87
2018-12-19T23:52:23.040Z,22.30
2018-12-19T23:54:52.859Z,20.60
2018-12-19T23:57:21.690Z,19.97
2018-12-19T23:59:50.683Z,22.17
